sensor_id;sensor_type;location;lat;lon;timestamp;P1;durP1;ratioP1;P2;durP2;ratioP2
8803;SDS011;4438;50.890;4.726;2022-12-07T00:00:31;12.90;;;10.13;;
8803;SDS011;4438;50.890;4.726;2022-12-07T00:02:57;11.93;;;10.53;;
8803;SDS011;4438;50.890;4.726;2022-12-07T00:05:23;10.97;;;9.87;;
8803;SDS011;4438;50.890;4.726;2022-12-07T00:07:49;12.77;;;10.37;;
8803;SDS011;4438;50.890;4.726;2022-12-07T00:10:15;13.77;;;10.80;;
8803;SDS011;4438;50.890;4.726;2022-12-07T00:12:42;11.13;;;9.83;;
8803;SDS011;4438;50.890;4.726;2022-12-07T00:15:08;11.97;;;10.27;;
8803;SDS011;4438;50.890;4.726;2022-12-07T00:17:34;12.17;;;10.30;;
8803;SDS011;4438;50.890;4.726;2022-12-07T00:20:00;11.77;;;10.03;;
8803;SDS011;4438;50.890;4.726;2022-12-07T00:22:26;12.73;;;10.87;;
8803;SDS011;4438;50.890;4.726;2022-12-07T00:24:52;14.30;;;12.00;;
8803;SDS011;4438;50.890;4.726;2022-12-07T00:27:18;15.13;;;11.37;;
8803;SDS011;4438;50.890;4.726;2022-12-07T00:29:44;12.33;;;11.03;;
8803;SDS011;4438;50.890;4.726;2022-12-07T00:32:10;12.90;;;11.57;;
8803;SDS011;4438;50.890;4.726;2022-12-07T00:34:36;12.27;;;10.87;;
8803;SDS011;4438;50.890;4.726;2022-12-07T00:37:03;11.70;;;10.50;;
8803;SDS011;4438;50.890;4.726;2022-12-07T00:39:29;12.60;;;11.30;;
8803;SDS011;4438;50.890;4.726;2022-12-07T00:41:55;12.33;;;10.20;;
8803;SDS011;4438;50.890;4.726;2022-12-07T00:44:22;12.10;;;10.47;;
8803;SDS011;4438;50.890;4.726;2022-12-07T00:46:48;11.77;;;10.57;;
8803;SDS011;4438;50.890;4.726;2022-12-07T00:49:14;11.77;;;10.57;;
8803;SDS011;4438;50.890;4.726;2022-12-07T00:51:40;12.43;;;10.83;;
8803;SDS011;4438;50.890;4.726;2022-12-07T00:54:06;12.07;;;10.20;;
8803;SDS011;4438;50.890;4.726;2022-12-07T00:56:32;12.50;;;10.80;;
8803;SDS011;4438;50.890;4.726;2022-12-07T00:59:00;12.67;;;10.70;;
8803;SDS011;4438;50.890;4.726;2022-12-07T01:01:27;13.30;;;10.57;;
8803;SDS011;4438;50.890;4.726;2022-12-07T01:03:54;12.50;;;11.20;;
8803;SDS011;4438;50.890;4.726;2022-12-07T01:06:21;12.30;;;10.80;;
8803;SDS011;4438;50.890;4.726;2022-12-07T01:08:47;12.60;;;10.33;;
8803;SDS011;4438;50.890;4.726;2022-12-07T01:11:15;11.63;;;10.53;;
8803;SDS011;4438;50.890;4.726;2022-12-07T01:13:41;12.43;;;11.20;;
8803;SDS011;4438;50.890;4.726;2022-12-07T01:16:08;12.40;;;11.20;;
8803;SDS011;4438;50.890;4.726;2022-12-07T01:18:35;12.40;;;11.10;;
8803;SDS011;4438;50.890;4.726;2022-12-07T01:21:12;12.77;;;11.37;;
8803;SDS011;4438;50.890;4.726;2022-12-07T01:23:39;14.30;;;11.13;;
8803;SDS011;4438;50.890;4.726;2022-12-07T01:26:06;12.20;;;10.57;;
8803;SDS011;4438;50.890;4.726;2022-12-07T01:28:33;12.47;;;11.17;;
8803;SDS011;4438;50.890;4.726;2022-12-07T01:31:07;12.33;;;11.03;;
8803;SDS011;4438;50.890;4.726;2022-12-07T01:33:35;12.50;;;11.23;;
8803;SDS011;4438;50.890;4.726;2022-12-07T01:36:05;12.63;;;11.33;;
8803;SDS011;4438;50.890;4.726;2022-12-07T01:38:31;12.13;;;11.00;;
8803;SDS011;4438;50.890;4.726;2022-12-07T01:40:58;12.13;;;10.83;;
8803;SDS011;4438;50.890;4.726;2022-12-07T01:43:25;11.63;;;10.43;;
8803;SDS011;4438;50.890;4.726;2022-12-07T01:45:52;12.90;;;11.50;;
8803;SDS011;4438;50.890;4.726;2022-12-07T01:48:19;12.90;;;11.60;;
8803;SDS011;4438;50.890;4.726;2022-12-07T01:50:47;11.83;;;10.63;;
8803;SDS011;4438;50.890;4.726;2022-12-07T01:53:14;12.63;;;11.30;;
8803;SDS011;4438;50.890;4.726;2022-12-07T01:55:42;13.23;;;11.37;;
8803;SDS011;4438;50.890;4.726;2022-12-07T01:58:09;13.87;;;12.40;;
8803;SDS011;4438;50.890;4.726;2022-12-07T02:00:36;13.57;;;12.20;;
8803;SDS011;4438;50.890;4.726;2022-12-07T02:05:28;13.20;;;11.80;;
8803;SDS011;4438;50.890;4.726;2022-12-07T02:07:55;14.33;;;12.83;;
8803;SDS011;4438;50.890;4.726;2022-12-07T02:10:27;14.83;;;13.30;;
8803;SDS011;4438;50.890;4.726;2022-12-07T02:12:55;13.83;;;12.43;;
8803;SDS011;4438;50.890;4.726;2022-12-07T02:15:22;15.87;;;13.90;;
8803;SDS011;4438;50.890;4.726;2022-12-07T02:20:23;15.43;;;13.80;;
8803;SDS011;4438;50.890;4.726;2022-12-07T02:25:47;17.07;;;14.07;;
8803;SDS011;4438;50.890;4.726;2022-12-07T02:31:17;17.27;;;14.00;;
8803;SDS011;4438;50.890;4.726;2022-12-07T02:33:50;16.10;;;14.23;;
8803;SDS011;4438;50.890;4.726;2022-12-07T02:36:21;16.87;;;14.20;;
8803;SDS011;4438;50.890;4.726;2022-12-07T02:39:03;16.60;;;13.77;;
8803;SDS011;4438;50.890;4.726;2022-12-07T02:41:33;15.20;;;13.60;;
8803;SDS011;4438;50.890;4.726;2022-12-07T02:44:08;15.23;;;13.63;;
8803;SDS011;4438;50.890;4.726;2022-12-07T02:46:54;15.47;;;13.87;;
8803;SDS011;4438;50.890;4.726;2022-12-07T02:49:21;15.47;;;13.87;;
8803;SDS011;4438;50.890;4.726;2022-12-07T02:51:48;16.80;;;14.20;;
8803;SDS011;4438;50.890;4.726;2022-12-07T02:54:15;15.83;;;14.13;;
8803;SDS011;4438;50.890;4.726;2022-12-07T03:09:48;15.70;;;14.00;;
8803;SDS011;4438;50.890;4.726;2022-12-07T03:12:22;16.67;;;14.17;;
8803;SDS011;4438;50.890;4.726;2022-12-07T03:15:07;15.43;;;13.70;;
8803;SDS011;4438;50.890;4.726;2022-12-07T03:17:36;17.50;;;14.33;;
8803;SDS011;4438;50.890;4.726;2022-12-07T03:20:04;16.90;;;14.20;;
8803;SDS011;4438;50.890;4.726;2022-12-07T03:22:33;17.17;;;14.43;;
8803;SDS011;4438;50.890;4.726;2022-12-07T03:25:02;15.10;;;13.00;;
8803;SDS011;4438;50.890;4.726;2022-12-07T03:27:39;15.97;;;13.73;;
8803;SDS011;4438;50.890;4.726;2022-12-07T03:30:08;17.27;;;14.43;;
8803;SDS011;4438;50.890;4.726;2022-12-07T03:39:58;16.60;;;14.63;;
8803;SDS011;4438;50.890;4.726;2022-12-07T03:42:27;17.33;;;14.63;;
8803;SDS011;4438;50.890;4.726;2022-12-07T03:44:54;17.33;;;14.57;;
8803;SDS011;4438;50.890;4.726;2022-12-07T03:47:24;15.67;;;13.90;;
8803;SDS011;4438;50.890;4.726;2022-12-07T03:50:10;19.93;;;15.17;;
8803;SDS011;4438;50.890;4.726;2022-12-07T03:52:39;18.00;;;14.40;;
8803;SDS011;4438;50.890;4.726;2022-12-07T03:55:08;15.57;;;13.97;;
8803;SDS011;4438;50.890;4.726;2022-12-07T03:57:35;17.77;;;14.50;;
8803;SDS011;4438;50.890;4.726;2022-12-07T04:00:04;17.13;;;14.57;;
8803;SDS011;4438;50.890;4.726;2022-12-07T04:02:30;16.00;;;13.57;;
8803;SDS011;4438;50.890;4.726;2022-12-07T04:04:57;17.13;;;13.30;;
8803;SDS011;4438;50.890;4.726;2022-12-07T04:07:24;15.17;;;13.57;;
8803;SDS011;4438;50.890;4.726;2022-12-07T04:09:50;16.13;;;13.90;;
8803;SDS011;4438;50.890;4.726;2022-12-07T04:12:16;14.70;;;13.10;;
8803;SDS011;4438;50.890;4.726;2022-12-07T04:14:43;14.40;;;12.83;;
8803;SDS011;4438;50.890;4.726;2022-12-07T04:17:09;13.90;;;12.53;;
8803;SDS011;4438;50.890;4.726;2022-12-07T04:19:35;15.93;;;13.73;;
8803;SDS011;4438;50.890;4.726;2022-12-07T04:22:01;15.53;;;13.17;;
8803;SDS011;4438;50.890;4.726;2022-12-07T04:24:28;16.20;;;13.13;;
8803;SDS011;4438;50.890;4.726;2022-12-07T04:26:54;14.30;;;12.20;;
8803;SDS011;4438;50.890;4.726;2022-12-07T04:29:20;13.90;;;11.80;;
8803;SDS011;4438;50.890;4.726;2022-12-07T04:31:46;13.37;;;11.80;;
8803;SDS011;4438;50.890;4.726;2022-12-07T04:34:13;13.00;;;11.63;;
8803;SDS011;4438;50.890;4.726;2022-12-07T04:36:39;13.23;;;11.83;;
8803;SDS011;4438;50.890;4.726;2022-12-07T04:39:06;14.73;;;12.53;;
8803;SDS011;4438;50.890;4.726;2022-12-07T04:41:32;13.43;;;12.13;;
8803;SDS011;4438;50.890;4.726;2022-12-07T04:44:00;13.73;;;11.63;;
8803;SDS011;4438;50.890;4.726;2022-12-07T04:46:27;12.97;;;11.60;;
8803;SDS011;4438;50.890;4.726;2022-12-07T04:48:53;14.03;;;12.10;;
8803;SDS011;4438;50.890;4.726;2022-12-07T04:51:21;12.87;;;11.60;;
8803;SDS011;4438;50.890;4.726;2022-12-07T04:53:48;15.10;;;13.60;;
8803;SDS011;4438;50.890;4.726;2022-12-07T04:56:14;13.87;;;11.67;;
8803;SDS011;4438;50.890;4.726;2022-12-07T04:58:41;14.17;;;12.53;;
8803;SDS011;4438;50.890;4.726;2022-12-07T05:01:07;15.57;;;13.43;;
8803;SDS011;4438;50.890;4.726;2022-12-07T05:03:33;15.03;;;13.10;;
8803;SDS011;4438;50.890;4.726;2022-12-07T05:05:59;13.43;;;12.03;;
8803;SDS011;4438;50.890;4.726;2022-12-07T05:08:25;13.73;;;12.40;;
8803;SDS011;4438;50.890;4.726;2022-12-07T05:10:51;14.70;;;13.10;;
8803;SDS011;4438;50.890;4.726;2022-12-07T05:13:17;14.43;;;12.90;;
8803;SDS011;4438;50.890;4.726;2022-12-07T05:15:43;14.77;;;13.17;;
8803;SDS011;4438;50.890;4.726;2022-12-07T05:18:11;14.33;;;12.83;;
8803;SDS011;4438;50.890;4.726;2022-12-07T05:20:38;16.00;;;13.80;;
8803;SDS011;4438;50.890;4.726;2022-12-07T05:23:04;13.63;;;12.30;;
8803;SDS011;4438;50.890;4.726;2022-12-07T05:25:30;14.87;;;13.00;;
8803;SDS011;4438;50.890;4.726;2022-12-07T05:27:56;13.80;;;12.23;;
8803;SDS011;4438;50.890;4.726;2022-12-07T05:30:23;14.03;;;12.63;;
8803;SDS011;4438;50.890;4.726;2022-12-07T05:32:49;14.27;;;12.87;;
8803;SDS011;4438;50.890;4.726;2022-12-07T05:35:16;13.77;;;12.27;;
8803;SDS011;4438;50.890;4.726;2022-12-07T05:37:42;13.90;;;12.27;;
8803;SDS011;4438;50.890;4.726;2022-12-07T05:40:08;15.03;;;13.50;;
8803;SDS011;4438;50.890;4.726;2022-12-07T05:42:34;15.30;;;13.70;;
8803;SDS011;4438;50.890;4.726;2022-12-07T05:45:01;13.73;;;11.80;;
8803;SDS011;4438;50.890;4.726;2022-12-07T05:47:27;15.50;;;13.40;;
8803;SDS011;4438;50.890;4.726;2022-12-07T05:49:53;13.63;;;11.90;;
8803;SDS011;4438;50.890;4.726;2022-12-07T05:52:19;14.10;;;12.37;;
8803;SDS011;4438;50.890;4.726;2022-12-07T05:54:45;13.90;;;12.47;;
8803;SDS011;4438;50.890;4.726;2022-12-07T05:57:11;13.47;;;12.07;;
8803;SDS011;4438;50.890;4.726;2022-12-07T05:59:37;14.17;;;12.47;;
8803;SDS011;4438;50.890;4.726;2022-12-07T06:02:05;13.00;;;11.63;;
8803;SDS011;4438;50.890;4.726;2022-12-07T06:04:32;13.40;;;12.03;;
8803;SDS011;4438;50.890;4.726;2022-12-07T06:06:59;12.87;;;11.60;;
8803;SDS011;4438;50.890;4.726;2022-12-07T06:09:25;14.00;;;12.50;;
8803;SDS011;4438;50.890;4.726;2022-12-07T06:11:52;13.03;;;11.73;;
8803;SDS011;4438;50.890;4.726;2022-12-07T06:14:37;12.83;;;11.57;;
8803;SDS011;4438;50.890;4.726;2022-12-07T06:17:03;13.43;;;11.70;;
8803;SDS011;4438;50.890;4.726;2022-12-07T06:19:29;13.80;;;12.03;;
8803;SDS011;4438;50.890;4.726;2022-12-07T06:21:55;12.53;;;11.27;;
8803;SDS011;4438;50.890;4.726;2022-12-07T06:24:22;13.13;;;11.73;;
8803;SDS011;4438;50.890;4.726;2022-12-07T06:26:48;13.20;;;11.80;;
8803;SDS011;4438;50.890;4.726;2022-12-07T06:29:17;14.47;;;12.70;;
8803;SDS011;4438;50.890;4.726;2022-12-07T06:31:44;14.73;;;13.13;;
8803;SDS011;4438;50.890;4.726;2022-12-07T06:34:11;13.87;;;11.70;;
8803;SDS011;4438;50.890;4.726;2022-12-07T06:36:39;14.47;;;12.60;;
8803;SDS011;4438;50.890;4.726;2022-12-07T06:39:05;14.13;;;12.70;;
8803;SDS011;4438;50.890;4.726;2022-12-07T06:41:34;14.43;;;11.87;;
8803;SDS011;4438;50.890;4.726;2022-12-07T06:44:01;13.43;;;11.97;;
8803;SDS011;4438;50.890;4.726;2022-12-07T06:46:27;13.43;;;12.03;;
8803;SDS011;4438;50.890;4.726;2022-12-07T06:48:53;16.20;;;13.40;;
8803;SDS011;4438;50.890;4.726;2022-12-07T06:51:19;15.37;;;12.60;;
8803;SDS011;4438;50.890;4.726;2022-12-07T06:53:45;16.40;;;13.87;;
8803;SDS011;4438;50.890;4.726;2022-12-07T06:56:11;18.23;;;16.33;;
8803;SDS011;4438;50.890;4.726;2022-12-07T06:58:39;17.00;;;14.50;;
8803;SDS011;4438;50.890;4.726;2022-12-07T07:01:09;14.87;;;13.37;;
8803;SDS011;4438;50.890;4.726;2022-12-07T07:03:35;14.37;;;12.60;;
8803;SDS011;4438;50.890;4.726;2022-12-07T07:06:01;14.10;;;12.70;;
8803;SDS011;4438;50.890;4.726;2022-12-07T07:08:27;15.50;;;12.77;;
8803;SDS011;4438;50.890;4.726;2022-12-07T07:10:53;15.23;;;13.57;;
8803;SDS011;4438;50.890;4.726;2022-12-07T07:13:19;14.70;;;12.70;;
8803;SDS011;4438;50.890;4.726;2022-12-07T07:15:46;14.30;;;12.80;;
8803;SDS011;4438;50.890;4.726;2022-12-07T07:18:12;13.20;;;11.90;;
8803;SDS011;4438;50.890;4.726;2022-12-07T07:20:38;14.23;;;12.73;;
8803;SDS011;4438;50.890;4.726;2022-12-07T07:23:04;13.80;;;12.47;;
8803;SDS011;4438;50.890;4.726;2022-12-07T07:25:31;13.10;;;11.70;;
8803;SDS011;4438;50.890;4.726;2022-12-07T07:27:57;13.73;;;12.07;;
8803;SDS011;4438;50.890;4.726;2022-12-07T07:30:23;13.43;;;12.03;;
8803;SDS011;4438;50.890;4.726;2022-12-07T07:32:50;17.07;;;12.53;;
8803;SDS011;4438;50.890;4.726;2022-12-07T07:35:16;14.13;;;11.87;;
8803;SDS011;4438;50.890;4.726;2022-12-07T07:37:42;13.80;;;12.07;;
8803;SDS011;4438;50.890;4.726;2022-12-07T07:40:09;14.33;;;11.17;;
8803;SDS011;4438;50.890;4.726;2022-12-07T07:42:35;13.97;;;11.10;;
8803;SDS011;4438;50.890;4.726;2022-12-07T07:45:01;13.90;;;10.57;;
8803;SDS011;4438;50.890;4.726;2022-12-07T07:47:27;14.67;;;10.90;;
8803;SDS011;4438;50.890;4.726;2022-12-07T07:49:54;13.57;;;9.73;;
8803;SDS011;4438;50.890;4.726;2022-12-07T07:52:20;16.10;;;10.23;;
8803;SDS011;4438;50.890;4.726;2022-12-07T07:54:46;12.37;;;10.17;;
8803;SDS011;4438;50.890;4.726;2022-12-07T07:57:12;13.50;;;10.23;;
8803;SDS011;4438;50.890;4.726;2022-12-07T07:59:38;10.13;;;9.10;;
8803;SDS011;4438;50.890;4.726;2022-12-07T08:02:05;10.97;;;9.50;;
8803;SDS011;4438;50.890;4.726;2022-12-07T08:04:31;13.07;;;10.20;;
8803;SDS011;4438;50.890;4.726;2022-12-07T08:06:57;10.40;;;9.10;;
8803;SDS011;4438;50.890;4.726;2022-12-07T08:09:23;10.67;;;9.03;;
8803;SDS011;4438;50.890;4.726;2022-12-07T08:11:49;11.00;;;8.73;;
8803;SDS011;4438;50.890;4.726;2022-12-07T08:14:15;11.27;;;8.83;;
8803;SDS011;4438;50.890;4.726;2022-12-07T08:16:41;11.13;;;9.23;;
8803;SDS011;4438;50.890;4.726;2022-12-07T08:19:07;13.10;;;9.60;;
8803;SDS011;4438;50.890;4.726;2022-12-07T08:21:33;10.37;;;9.20;;
8803;SDS011;4438;50.890;4.726;2022-12-07T08:23:59;11.27;;;9.03;;
8803;SDS011;4438;50.890;4.726;2022-12-07T08:26:26;11.03;;;9.53;;
8803;SDS011;4438;50.890;4.726;2022-12-07T08:28:52;10.30;;;9.13;;
8803;SDS011;4438;50.890;4.726;2022-12-07T08:31:18;10.53;;;9.37;;
8803;SDS011;4438;50.890;4.726;2022-12-07T08:33:45;11.80;;;9.37;;
8803;SDS011;4438;50.890;4.726;2022-12-07T08:36:12;10.43;;;9.20;;
8803;SDS011;4438;50.890;4.726;2022-12-07T08:38:39;9.60;;;8.60;;
8803;SDS011;4438;50.890;4.726;2022-12-07T08:41:05;10.87;;;9.63;;
8803;SDS011;4438;50.890;4.726;2022-12-07T08:43:32;11.53;;;8.83;;
8803;SDS011;4438;50.890;4.726;2022-12-07T08:48:53;9.60;;;8.20;;
8803;SDS011;4438;50.890;4.726;2022-12-07T08:51:20;10.47;;;9.03;;
8803;SDS011;4438;50.890;4.726;2022-12-07T08:53:47;9.70;;;8.70;;
8803;SDS011;4438;50.890;4.726;2022-12-07T08:56:14;11.90;;;9.53;;
8803;SDS011;4438;50.890;4.726;2022-12-07T08:58:40;10.07;;;8.93;;
8803;SDS011;4438;50.890;4.726;2022-12-07T09:01:06;13.50;;;9.47;;
8803;SDS011;4438;50.890;4.726;2022-12-07T09:03:32;15.13;;;10.13;;
8803;SDS011;4438;50.890;4.726;2022-12-07T09:05:58;13.37;;;10.30;;
8803;SDS011;4438;50.890;4.726;2022-12-07T09:08:27;12.87;;;9.83;;
8803;SDS011;4438;50.890;4.726;2022-12-07T09:10:54;14.90;;;11.10;;
8803;SDS011;4438;50.890;4.726;2022-12-07T09:13:20;12.73;;;10.27;;
8803;SDS011;4438;50.890;4.726;2022-12-07T09:15:47;15.27;;;10.83;;
8803;SDS011;4438;50.890;4.726;2022-12-07T09:18:13;14.83;;;10.43;;
8803;SDS011;4438;50.890;4.726;2022-12-07T09:20:40;13.80;;;10.83;;
8803;SDS011;4438;50.890;4.726;2022-12-07T09:23:06;11.03;;;9.40;;
8803;SDS011;4438;50.890;4.726;2022-12-07T09:25:33;11.87;;;10.60;;
8803;SDS011;4438;50.890;4.726;2022-12-07T09:27:59;13.73;;;10.23;;
8803;SDS011;4438;50.890;4.726;2022-12-07T09:30:26;12.00;;;9.83;;
8803;SDS011;4438;50.890;4.726;2022-12-07T09:32:53;12.87;;;10.60;;
8803;SDS011;4438;50.890;4.726;2022-12-07T09:35:19;12.43;;;10.07;;
8803;SDS011;4438;50.890;4.726;2022-12-07T09:37:45;12.33;;;10.10;;
8803;SDS011;4438;50.890;4.726;2022-12-07T09:40:11;11.93;;;10.10;;
8803;SDS011;4438;50.890;4.726;2022-12-07T09:42:39;12.67;;;11.10;;
8803;SDS011;4438;50.890;4.726;2022-12-07T09:45:06;11.47;;;10.27;;
8803;SDS011;4438;50.890;4.726;2022-12-07T09:47:33;11.90;;;9.70;;
8803;SDS011;4438;50.890;4.726;2022-12-07T09:50:13;12.77;;;8.90;;
8803;SDS011;4438;50.890;4.726;2022-12-07T09:52:39;10.93;;;8.80;;
8803;SDS011;4438;50.890;4.726;2022-12-07T09:55:10;12.97;;;9.40;;
8803;SDS011;4438;50.890;4.726;2022-12-07T09:57:37;9.93;;;8.93;;
8803;SDS011;4438;50.890;4.726;2022-12-07T10:00:04;12.30;;;9.30;;
8803;SDS011;4438;50.890;4.726;2022-12-07T10:02:37;14.53;;;9.43;;
8803;SDS011;4438;50.890;4.726;2022-12-07T10:05:04;11.87;;;9.00;;
8803;SDS011;4438;50.890;4.726;2022-12-07T10:07:31;11.17;;;9.00;;
8803;SDS011;4438;50.890;4.726;2022-12-07T10:09:57;11.93;;;9.10;;
8803;SDS011;4438;50.890;4.726;2022-12-07T10:12:23;11.77;;;9.23;;
8803;SDS011;4438;50.890;4.726;2022-12-07T10:14:53;12.03;;;8.83;;
8803;SDS011;4438;50.890;4.726;2022-12-07T10:19:52;12.33;;;9.13;;
8803;SDS011;4438;50.890;4.726;2022-12-07T10:22:18;10.93;;;8.50;;
8803;SDS011;4438;50.890;4.726;2022-12-07T10:24:46;10.80;;;8.70;;
8803;SDS011;4438;50.890;4.726;2022-12-07T10:27:22;11.17;;;8.97;;
8803;SDS011;4438;50.890;4.726;2022-12-07T10:29:52;9.47;;;7.80;;
8803;SDS011;4438;50.890;4.726;2022-12-07T10:34:45;8.77;;;7.80;;
8803;SDS011;4438;50.890;4.726;2022-12-07T10:39:47;9.63;;;8.13;;
8803;SDS011;4438;50.890;4.726;2022-12-07T10:42:27;10.53;;;7.87;;
8803;SDS011;4438;50.890;4.726;2022-12-07T10:47:55;10.93;;;7.87;;
8803;SDS011;4438;50.890;4.726;2022-12-07T11:03:37;11.27;;;7.20;;
8803;SDS011;4438;50.890;4.726;2022-12-07T11:09:00;8.23;;;4.60;;
8803;SDS011;4438;50.890;4.726;2022-12-07T11:14:20;8.07;;;5.23;;
8803;SDS011;4438;50.890;4.726;2022-12-07T11:16:59;9.03;;;5.60;;
8803;SDS011;4438;50.890;4.726;2022-12-07T11:22:24;8.90;;;6.13;;
8803;SDS011;4438;50.890;4.726;2022-12-07T11:29:54;7.03;;;5.70;;
8803;SDS011;4438;50.890;4.726;2022-12-07T11:32:43;6.97;;;5.80;;
8803;SDS011;4438;50.890;4.726;2022-12-07T11:35:15;9.20;;;6.53;;
8803;SDS011;4438;50.890;4.726;2022-12-07T11:37:43;9.73;;;6.03;;
8803;SDS011;4438;50.890;4.726;2022-12-07T11:40:30;10.10;;;5.97;;
8803;SDS011;4438;50.890;4.726;2022-12-07T11:45:33;8.17;;;6.30;;
8803;SDS011;4438;50.890;4.726;2022-12-07T11:48:00;10.57;;;6.50;;
8803;SDS011;4438;50.890;4.726;2022-12-07T11:50:39;8.27;;;6.03;;
8803;SDS011;4438;50.890;4.726;2022-12-07T11:55:47;8.50;;;5.50;;
8803;SDS011;4438;50.890;4.726;2022-12-07T11:58:33;10.50;;;6.17;;
8803;SDS011;4438;50.890;4.726;2022-12-07T12:01:07;8.00;;;5.57;;
8803;SDS011;4438;50.890;4.726;2022-12-07T12:03:35;9.17;;;5.23;;
8803;SDS011;4438;50.890;4.726;2022-12-07T12:06:03;8.97;;;5.40;;
8803;SDS011;4438;50.890;4.726;2022-12-07T12:08:37;11.13;;;6.43;;
8803;SDS011;4438;50.890;4.726;2022-12-07T12:11:10;11.40;;;5.90;;
8803;SDS011;4438;50.890;4.726;2022-12-07T12:16:23;7.50;;;5.40;;
8803;SDS011;4438;50.890;4.726;2022-12-07T12:21:40;7.57;;;5.83;;
8803;SDS011;4438;50.890;4.726;2022-12-07T12:24:12;9.07;;;5.50;;
8803;SDS011;4438;50.890;4.726;2022-12-07T12:26:41;6.77;;;5.90;;
8803;SDS011;4438;50.890;4.726;2022-12-07T12:29:21;7.33;;;6.50;;
8803;SDS011;4438;50.890;4.726;2022-12-07T12:34:39;6.90;;;5.97;;
8803;SDS011;4438;50.890;4.726;2022-12-07T12:42:49;8.97;;;5.70;;
8803;SDS011;4438;50.890;4.726;2022-12-07T12:45:26;10.37;;;6.37;;
8803;SDS011;4438;50.890;4.726;2022-12-07T12:53:39;8.77;;;5.03;;
8803;SDS011;4438;50.890;4.726;2022-12-07T12:58:33;7.43;;;4.53;;
8803;SDS011;4438;50.890;4.726;2022-12-07T13:03:52;8.73;;;5.23;;
8803;SDS011;4438;50.890;4.726;2022-12-07T13:06:19;5.93;;;4.47;;
8803;SDS011;4438;50.890;4.726;2022-12-07T13:08:46;5.57;;;4.37;;
8803;SDS011;4438;50.890;4.726;2022-12-07T13:11:19;8.67;;;4.70;;
8803;SDS011;4438;50.890;4.726;2022-12-07T13:13:46;6.50;;;4.50;;
8803;SDS011;4438;50.890;4.726;2022-12-07T13:18:38;7.67;;;3.90;;
8803;SDS011;4438;50.890;4.726;2022-12-07T13:23:36;5.93;;;3.83;;
8803;SDS011;4438;50.890;4.726;2022-12-07T13:26:18;5.40;;;3.87;;
8803;SDS011;4438;50.890;4.726;2022-12-07T13:28:52;6.50;;;4.10;;
8803;SDS011;4438;50.890;4.726;2022-12-07T13:31:52;8.47;;;4.10;;
8803;SDS011;4438;50.890;4.726;2022-12-07T13:36:55;7.37;;;5.10;;
8803;SDS011;4438;50.890;4.726;2022-12-07T13:39:25;9.10;;;5.87;;
8803;SDS011;4438;50.890;4.726;2022-12-07T13:41:53;6.20;;;5.00;;
8803;SDS011;4438;50.890;4.726;2022-12-07T13:44:20;6.80;;;4.33;;
8803;SDS011;4438;50.890;4.726;2022-12-07T13:49:16;6.33;;;4.07;;
8803;SDS011;4438;50.890;4.726;2022-12-07T13:51:43;6.03;;;4.10;;
8803;SDS011;4438;50.890;4.726;2022-12-07T13:54:10;5.90;;;3.90;;
8803;SDS011;4438;50.890;4.726;2022-12-07T13:56:36;7.00;;;3.70;;
8803;SDS011;4438;50.890;4.726;2022-12-07T13:59:14;5.00;;;3.60;;
8803;SDS011;4438;50.890;4.726;2022-12-07T14:01:41;5.33;;;3.33;;
8803;SDS011;4438;50.890;4.726;2022-12-07T14:06:47;5.47;;;3.40;;
8803;SDS011;4438;50.890;4.726;2022-12-07T14:09:18;5.43;;;3.67;;
8803;SDS011;4438;50.890;4.726;2022-12-07T14:11:45;6.37;;;3.87;;
8803;SDS011;4438;50.890;4.726;2022-12-07T14:14:14;5.53;;;3.13;;
8803;SDS011;4438;50.890;4.726;2022-12-07T14:16:41;5.50;;;3.40;;
8803;SDS011;4438;50.890;4.726;2022-12-07T14:22:05;5.70;;;3.30;;
8803;SDS011;4438;50.890;4.726;2022-12-07T14:24:40;4.37;;;3.10;;
8803;SDS011;4438;50.890;4.726;2022-12-07T14:27:15;6.73;;;4.13;;
8803;SDS011;4438;50.890;4.726;2022-12-07T14:29:42;3.70;;;3.27;;
8803;SDS011;4438;50.890;4.726;2022-12-07T14:32:23;5.10;;;2.93;;
8803;SDS011;4438;50.890;4.726;2022-12-07T14:34:55;7.27;;;3.67;;
8803;SDS011;4438;50.890;4.726;2022-12-07T14:37:22;7.10;;;3.60;;
8803;SDS011;4438;50.890;4.726;2022-12-07T14:39:48;4.30;;;2.70;;
8803;SDS011;4438;50.890;4.726;2022-12-07T14:42:14;5.23;;;3.27;;
8803;SDS011;4438;50.890;4.726;2022-12-07T14:44:40;4.67;;;3.27;;
8803;SDS011;4438;50.890;4.726;2022-12-07T14:47:09;5.53;;;4.07;;
8803;SDS011;4438;50.890;4.726;2022-12-07T14:49:35;4.40;;;3.73;;
8803;SDS011;4438;50.890;4.726;2022-12-07T14:52:01;4.67;;;4.03;;
8803;SDS011;4438;50.890;4.726;2022-12-07T14:54:29;5.23;;;4.73;;
8803;SDS011;4438;50.890;4.726;2022-12-07T14:56:56;4.80;;;4.23;;
8803;SDS011;4438;50.890;4.726;2022-12-07T14:59:22;6.10;;;4.73;;
8803;SDS011;4438;50.890;4.726;2022-12-07T15:01:49;5.87;;;4.07;;
8803;SDS011;4438;50.890;4.726;2022-12-07T15:04:15;5.63;;;4.83;;
8803;SDS011;4438;50.890;4.726;2022-12-07T15:06:41;6.07;;;4.87;;
8803;SDS011;4438;50.890;4.726;2022-12-07T15:09:10;5.77;;;4.83;;
8803;SDS011;4438;50.890;4.726;2022-12-07T15:11:36;6.90;;;6.20;;
8803;SDS011;4438;50.890;4.726;2022-12-07T15:14:02;58.50;;;30.57;;
8803;SDS011;4438;50.890;4.726;2022-12-07T15:16:36;14.70;;;9.63;;
8803;SDS011;4438;50.890;4.726;2022-12-07T15:19:04;20.77;;;14.73;;
8803;SDS011;4438;50.890;4.726;2022-12-07T15:21:31;6.70;;;6.00;;
8803;SDS011;4438;50.890;4.726;2022-12-07T15:23:57;7.77;;;6.47;;
8803;SDS011;4438;50.890;4.726;2022-12-07T15:26:23;6.83;;;4.73;;
8803;SDS011;4438;50.890;4.726;2022-12-07T15:28:49;5.93;;;4.20;;
8803;SDS011;4438;50.890;4.726;2022-12-07T15:31:16;4.47;;;4.07;;
8803;SDS011;4438;50.890;4.726;2022-12-07T15:33:42;6.00;;;4.90;;
8803;SDS011;4438;50.890;4.726;2022-12-07T15:36:12;7.60;;;4.80;;
8803;SDS011;4438;50.890;4.726;2022-12-07T15:38:43;6.67;;;5.97;;
8803;SDS011;4438;50.890;4.726;2022-12-07T15:41:09;7.67;;;5.77;;
8803;SDS011;4438;50.890;4.726;2022-12-07T15:43:36;6.23;;;5.27;;
8803;SDS011;4438;50.890;4.726;2022-12-07T15:46:21;6.40;;;5.20;;
8803;SDS011;4438;50.890;4.726;2022-12-07T15:48:47;6.00;;;5.40;;
8803;SDS011;4438;50.890;4.726;2022-12-07T15:51:13;7.40;;;6.80;;
8803;SDS011;4438;50.890;4.726;2022-12-07T15:53:39;7.20;;;6.37;;
8803;SDS011;4438;50.890;4.726;2022-12-07T15:56:05;6.87;;;5.90;;
8803;SDS011;4438;50.890;4.726;2022-12-07T15:58:32;5.77;;;5.07;;
8803;SDS011;4438;50.890;4.726;2022-12-07T16:00:58;7.37;;;5.00;;
8803;SDS011;4438;50.890;4.726;2022-12-07T16:03:24;5.87;;;5.00;;
8803;SDS011;4438;50.890;4.726;2022-12-07T16:05:50;5.83;;;5.33;;
8803;SDS011;4438;50.890;4.726;2022-12-07T16:08:18;6.53;;;5.93;;
8803;SDS011;4438;50.890;4.726;2022-12-07T16:10:44;6.47;;;5.40;;
8803;SDS011;4438;50.890;4.726;2022-12-07T16:13:10;11.10;;;8.43;;
8803;SDS011;4438;50.890;4.726;2022-12-07T16:15:41;17.50;;;13.00;;
8803;SDS011;4438;50.890;4.726;2022-12-07T16:18:07;10.70;;;8.90;;
8803;SDS011;4438;50.890;4.726;2022-12-07T16:20:33;6.53;;;5.93;;
8803;SDS011;4438;50.890;4.726;2022-12-07T16:22:59;6.33;;;5.73;;
8803;SDS011;4438;50.890;4.726;2022-12-07T16:25:25;8.67;;;6.30;;
8803;SDS011;4438;50.890;4.726;2022-12-07T16:27:52;6.97;;;5.73;;
8803;SDS011;4438;50.890;4.726;2022-12-07T16:30:18;7.50;;;5.70;;
8803;SDS011;4438;50.890;4.726;2022-12-07T16:32:44;6.53;;;5.30;;
8803;SDS011;4438;50.890;4.726;2022-12-07T16:35:11;6.03;;;5.30;;
8803;SDS011;4438;50.890;4.726;2022-12-07T16:37:37;5.50;;;5.00;;
8803;SDS011;4438;50.890;4.726;2022-12-07T16:40:03;6.53;;;5.37;;
8803;SDS011;4438;50.890;4.726;2022-12-07T16:42:33;8.20;;;5.97;;
8803;SDS011;4438;50.890;4.726;2022-12-07T16:44:59;8.43;;;6.83;;
8803;SDS011;4438;50.890;4.726;2022-12-07T16:47:26;16.63;;;11.10;;
8803;SDS011;4438;50.890;4.726;2022-12-07T16:49:52;8.43;;;6.53;;
8803;SDS011;4438;50.890;4.726;2022-12-07T16:52:18;7.90;;;6.83;;
8803;SDS011;4438;50.890;4.726;2022-12-07T16:54:44;11.60;;;8.17;;
8803;SDS011;4438;50.890;4.726;2022-12-07T16:57:10;8.60;;;6.60;;
8803;SDS011;4438;50.890;4.726;2022-12-07T16:59:36;6.63;;;5.93;;